Petoskey, Michigan
Current Conditions -  °F | °C
As of 12:15 AM on Friday 31 Oct 2014 (Local Time) from KMGN Reporting Station
Drizzle Drizzle  
Wind Chill: 37°   Ceiling: 3300
Heat Index: 40°   Visibility: 10mi
Dew Point: 38°   Wind: 5mph
Humidity: 91%   Direction: 300°WNW
Pressure: 29.92"   Gusts: NA
Location:  45.38°N, 84.96°W
Report Text: KMGN 310415Z AUTO 30004KT 10SM DZ BKN033 OVC040 04/03 A2992 RMK AO2 T00450031
Loading
Personal Weather Stations






























Interactive Weather Map
Tropical Storm Tracking
New forecast layout! Learn more

10-Day Weather Forecast

Advertisements
Track Severe Weather on mobile